Time;durP1;ratioP1;P1;durP2;ratioP2;P2;SDS_P1;SDS_P2;PMS_P1;PMS_P2;Temp;Humidity;BMP_temperature;BMP_pressure;BME280_temperature;BME280_humidity;BME280_pressure;Samples;Min_cycle;Max_cycle;Signal;HPM_P1;HPM_P2
2023/08/14 00:01:33;;;;;;;4.63;1.77;;;21.50;99.90;;;;;;5010594;28;20598;-67
2023/08/14 00:04:00;;;;;;;11.20;2.50;;;21.50;99.90;;;;;;5017686;28;20477;-68
2023/08/14 00:06:27;;;;;;;4.20;2.30;;;21.50;99.90;;;;;;5032025;28;20498;-67
2023/08/14 00:08:55;;;;;;;2.97;2.67;;;21.60;99.90;;;;;;5015618;28;20488;-64
2023/08/14 00:11:22;;;;;;;2.97;2.00;;;21.60;99.90;;;;;;5012108;28;20854;-64
2023/08/14 00:13:51;;;;;;;4.07;2.00;;;21.60;99.90;;;;;;5009153;28;20475;-65
2023/08/14 00:16:18;;;;;;;2.60;2.40;;;21.60;99.90;;;;;;5007013;28;20478;-65
2023/08/14 00:18:45;;;;;;;8.40;3.30;;;21.60;99.90;;;;;;5032343;28;20446;-65
2023/08/14 00:21:12;;;;;;;4.40;1.80;;;21.60;99.90;;;;;;5011857;28;20480;-64
2023/08/14 00:23:39;;;;;;;5.83;2.20;;;21.60;99.90;;;;;;5007174;28;20553;-64
2023/08/14 00:26:08;;;;;;;3.60;2.17;;;21.60;99.90;;;;;;5010277;28;21222;-64
2023/08/14 00:28:35;;;;;;;2.93;2.63;;;21.60;99.90;;;;;;5008426;28;20486;-64
2023/08/14 00:31:02;;;;;;;4.20;2.03;;;21.20;99.90;;;;;;5028608;28;20481;-64
2023/08/14 00:33:29;;;;;;;5.10;2.73;;;21.00;99.90;;;;;;5011355;28;21142;-64
2023/08/14 00:35:56;;;;;;;2.90;2.23;;;21.00;99.90;;;;;;5030179;28;20559;-64
2023/08/14 00:38:23;;;;;;;3.27;2.30;;;21.10;99.90;;;;;;5018611;28;20710;-64
2023/08/14 00:40:52;;;;;;;5.50;2.77;;;21.30;99.90;;;;;;5025244;28;20471;-65
2023/08/14 00:43:21;;;;;;;2.83;2.17;;;21.40;99.90;;;;;;4997126;28;20582;-64
2023/08/14 00:45:48;;;;;;;8.17;2.37;;;21.40;99.90;;;;;;5003657;28;20487;-64
2023/08/14 00:48:15;;;;;;;3.43;2.67;;;21.50;99.90;;;;;;4996414;28;20531;-64
2023/08/14 00:50:42;;;;;;;3.97;2.57;;;21.60;99.90;;;;;;4995924;28;20700;-64
2023/08/14 00:53:11;;;;;;;2.60;2.40;;;21.70;99.90;;;;;;4989181;28;20484;-65
2023/08/14 00:55:38;;;;;;;5.80;3.60;;;21.70;99.90;;;;;;4989667;28;20448;-65
2023/08/14 00:58:06;;;;;;;3.40;3.10;;;21.80;99.90;;;;;;4993448;28;20488;-64
2023/08/14 01:00:35;;;;;;;71.67;8.47;;;21.90;99.90;;;;;;5072192;23;20475;-68
2023/08/14 01:03:03;;;;;;;4.60;3.10;;;21.80;99.90;;;;;;5024765;28;20469;-67
2023/08/14 01:05:31;;;;;;;3.87;3.37;;;21.90;99.90;;;;;;5005657;28;20568;-68
2023/08/14 01:07:58;;;;;;;6.20;3.37;;;21.90;99.90;;;;;;4974988;28;20513;-66
2023/08/14 01:10:31;;;;;;;3.27;2.83;;;21.90;99.90;;;;;;5012761;28;20476;-68
2023/08/14 01:13:19;;;;;;;3.00;2.70;;;21.90;99.90;;;;;;4998627;28;20512;-68
2023/08/14 01:15:53;;;;;;;4.27;3.30;;;21.90;99.90;;;;;;4994215;28;20490;-68
2023/08/14 01:18:21;;;;;;;3.37;2.40;;;22.00;99.90;;;;;;5004562;28;20528;-68
2023/08/14 01:21:04;;;;;;;2.93;2.60;;;22.00;99.90;;;;;;5017877;28;20611;-67
2023/08/14 01:23:34;;;;;;;3.37;3.00;;;21.90;99.90;;;;;;4989191;28;20513;-68
2023/08/14 01:26:03;;;;;;;4.97;3.00;;;21.90;99.90;;;;;;5006083;28;20476;-67
2023/08/14 01:28:30;;;;;;;5.57;3.40;;;22.00;99.90;;;;;;4991271;28;20485;-68
2023/08/14 01:30:57;;;;;;;3.27;2.63;;;;;;;;;;5020374;28;20446;-68
2023/08/14 01:33:24;;;;;;;10.60;3.17;;;21.90;99.90;;;;;;5000117;28;20492;-68
2023/08/14 01:36:00;;;;;;;3.90;2.83;;;21.90;99.90;;;;;;4999837;28;20992;-68
2023/08/14 01:38:32;;;;;;;7.20;3.23;;;21.80;99.90;;;;;;5017021;28;20510;-68
2023/08/14 01:41:10;;;;;;;6.57;3.00;;;22.00;99.90;;;;;;5005583;28;20484;-69
2023/08/14 01:43:39;;;;;;;4.20;2.63;;;21.90;99.90;;;;;;5008772;28;20584;-68
2023/08/14 01:46:09;;;;;;;15.13;3.93;;;21.90;99.90;;;;;;5011886;28;20493;-68
2023/08/14 01:48:37;;;;;;;4.03;2.60;;;21.90;99.90;;;;;;4999245;28;20883;-67
2023/08/14 01:51:05;;;;;;;2.70;2.47;;;21.70;99.90;;;;;;5007070;28;20493;-68
2023/08/14 01:53:34;;;;;;;4.00;3.00;;;21.40;99.90;;;;;;5002734;28;20482;-68
2023/08/14 01:56:02;;;;;;;10.87;3.20;;;21.40;99.90;;;;;;5004193;28;20541;-68
2023/08/14 01:58:30;;;;;;;3.70;2.90;;;21.40;99.90;;;;;;5004474;28;20504;-67
2023/08/14 02:00:57;;;;;;;4.20;2.57;;;21.40;99.90;;;;;;5001815;28;20898;-67
2023/08/14 02:03:25;;;;;;;3.80;2.93;;;21.50;99.90;;;;;;5005090;28;20485;-68
2023/08/14 02:05:52;;;;;;;27.67;3.70;;;21.50;99.90;;;;;;5008113;28;20532;-68
2023/08/14 02:08:19;;;;;;;2.80;2.27;;;21.50;99.90;;;;;;5004875;28;20510;-70
2023/08/14 02:10:46;;;;;;;5.03;2.60;;;21.50;99.90;;;;;;5011718;28;20478;-71
2023/08/14 02:13:13;;;;;;;6.17;2.57;;;21.50;99.90;;;;;;5010177;28;20538;-70
2023/08/14 02:15:45;;;;;;;5.60;2.30;;;21.30;99.90;;;;;;4999911;28;20501;-70
2023/08/14 02:18:11;;;;;;;3.87;2.60;;;21.30;99.90;;;;;;4993536;28;20881;-71
2023/08/14 02:20:45;;;;;;;4.33;3.13;;;21.10;99.90;;;;;;5019706;28;20561;-71
2023/08/14 02:23:12;;;;;;;3.87;2.87;;;21.00;99.90;;;;;;5007426;28;20487;-70
2023/08/14 02:25:41;;;;;;;8.00;2.90;;;20.90;99.90;;;;;;5010463;28;20548;-70
2023/08/14 02:28:08;;;;;;;4.33;2.70;;;20.90;99.90;;;;;;5003822;28;20565;-71
2023/08/14 02:30:37;;;;;;;4.90;3.00;;;20.80;99.90;;;;;;4999566;28;20501;-71
2023/08/14 02:33:06;;;;;;;4.30;3.77;;;20.70;99.90;;;;;;5018037;28;21384;-70
2023/08/14 02:35:34;;;;;;;7.00;3.40;;;20.70;99.90;;;;;;4993491;28;20816;-71
2023/08/14 02:38:02;;;;;;;6.67;2.80;;;20.60;99.90;;;;;;5000658;28;20962;-70
2023/08/14 02:40:29;;;;;;;6.57;3.27;;;20.80;99.90;;;;;;5012191;28;21042;-70
2023/08/14 02:43:00;;;;;;;2.70;2.20;;;20.80;99.90;;;;;;5008404;28;20484;-70
2023/08/14 02:45:27;;;;;;;17.80;3.60;;;20.60;99.90;;;;;;4999535;28;20531;-71
2023/08/14 02:47:54;;;;;;;2.83;2.53;;;20.60;99.90;;;;;;5002528;28;20719;-71
2023/08/14 02:50:23;;;;;;;3.60;2.43;;;20.60;99.90;;;;;;5016654;28;20582;-71
2023/08/14 02:52:50;;;;;;;2.87;2.50;;;20.60;99.90;;;;;;5004155;28;21083;-71
2023/08/14 02:55:17;;;;;;;15.73;5.90;;;20.70;99.90;;;;;;5015539;28;20553;-71
2023/08/14 02:57:43;;;;;;;3.20;2.47;;;20.70;99.90;;;;;;5014613;28;20475;-71
2023/08/14 03:00:11;;;;;;;5.30;3.33;;;20.70;99.90;;;;;;4993736;28;20484;-70
2023/08/14 03:02:38;;;;;;;3.43;3.00;;;20.80;99.90;;;;;;5010847;28;20855;-71
2023/08/14 03:05:05;;;;;;;3.60;2.87;;;20.80;99.90;;;;;;5003330;28;20574;-71
2023/08/14 03:07:33;;;;;;;4.67;2.70;;;20.90;99.90;;;;;;5005882;28;20565;-71
2023/08/14 03:10:00;;;;;;;4.23;2.70;;;20.90;99.90;;;;;;4997543;28;20587;-71
2023/08/14 03:12:27;;;;;;;3.67;2.80;;;20.90;99.90;;;;;;4997828;28;21226;-71
2023/08/14 03:14:54;;;;;;;6.80;2.73;;;20.90;99.90;;;;;;5009242;28;20931;-71
2023/08/14 03:17:21;;;;;;;4.40;3.00;;;20.90;99.90;;;;;;4989816;28;20610;-69
2023/08/14 03:19:48;;;;;;;4.93;2.37;;;20.90;99.90;;;;;;5009601;28;20545;-69
2023/08/14 03:22:15;;;;;;;3.67;2.97;;;20.80;99.90;;;;;;5005130;28;21198;-69
2023/08/14 03:24:44;;;;;;;3.00;2.70;;;20.80;99.90;;;;;;5003865;28;20471;-69
2023/08/14 03:27:11;;;;;;;4.03;2.17;;;20.80;99.90;;;;;;4999848;28;20686;-69
2023/08/14 03:29:38;;;;;;;3.57;2.90;;;;;;;;;;4997295;28;20957;-68
2023/08/14 03:32:05;;;;;;;6.53;3.20;;;20.80;99.90;;;;;;5007267;28;20811;-68
2023/08/14 03:34:32;;;;;;;7.23;3.53;;;20.80;99.90;;;;;;4996789;28;20485;-68
2023/08/14 03:36:59;;;;;;;6.90;2.60;;;20.60;99.90;;;;;;5003136;28;20571;-68
2023/08/14 03:39:26;;;;;;;3.03;2.73;;;20.60;99.90;;;;;;5006890;28;20552;-68
2023/08/14 03:41:54;;;;;;;13.27;4.40;;;20.50;99.90;;;;;;5007603;28;20486;-68
2023/08/14 03:44:21;;;;;;;6.50;2.70;;;20.50;99.90;;;;;;5004446;28;20490;-69
2023/08/14 03:46:48;;;;;;;7.97;3.27;;;20.50;99.90;;;;;;4983253;28;20569;-68
2023/08/14 03:49:16;;;;;;;3.90;2.27;;;20.50;99.90;;;;;;5004935;28;20494;-68
2023/08/14 03:51:43;;;;;;;15.13;2.87;;;20.50;99.90;;;;;;5000802;28;20553;-68
2023/08/14 03:54:10;;;;;;;2.97;2.10;;;20.50;99.90;;;;;;4980428;28;20503;-68
2023/08/14 03:56:37;;;;;;;3.83;2.67;;;20.50;99.90;;;;;;5014418;28;21055;-68
2023/08/14 03:59:05;;;;;;;4.87;2.87;;;20.50;99.90;;;;;;4964235;28;20488;-68
2023/08/14 04:01:32;;;;;;;10.40;2.47;;;20.50;99.90;;;;;;5003927;28;20465;-68
2023/08/14 04:03:59;;;;;;;5.07;2.40;;;20.50;99.90;;;;;;4989907;28;20874;-68
2023/08/14 04:06:26;;;;;;;5.67;2.90;;;20.60;99.90;;;;;;5003205;28;20493;-68
2023/08/14 04:08:53;;;;;;;6.97;3.00;;;20.60;99.90;;;;;;5002601;28;20845;-68
2023/08/14 04:11:21;;;;;;;12.13;3.10;;;;;;;;;;4999711;28;20478;-68
2023/08/14 04:13:48;;;;;;;6.50;2.90;;;20.70;99.90;;;;;;4992887;28;20500;-69
2023/08/14 04:16:19;;;;;;;8.60;4.33;;;20.70;99.90;;;;;;4988952;28;20554;-69
2023/08/14 04:18:46;;;;;;;8.30;3.20;;;20.70;99.90;;;;;;5004846;28;20558;-68
2023/08/14 04:21:13;;;;;;;5.33;2.90;;;20.70;99.90;;;;;;5010195;28;20483;-68
2023/08/14 04:23:40;;;;;;;3.73;2.67;;;20.80;99.90;;;;;;4986925;28;20579;-68
2023/08/14 04:26:07;;;;;;;4.87;3.23;;;20.70;99.90;;;;;;5008575;28;21348;-69
2023/08/14 04:28:34;;;;;;;5.40;2.83;;;20.70;99.90;;;;;;5002603;28;20512;-68
2023/08/14 04:31:02;;;;;;;2.93;2.50;;;;;;;;;;5004498;28;20594;-68
2023/08/14 04:33:31;;;;;;;2.93;2.63;;;20.70;99.90;;;;;;5003186;28;20579;-68
2023/08/14 04:35:57;;;;;;;5.90;3.20;;;20.70;99.90;;;;;;4996507;28;21057;-68
2023/08/14 04:38:24;;;;;;;6.73;2.93;;;20.70;99.90;;;;;;5003126;28;20585;-68
2023/08/14 04:40:51;;;;;;;4.67;3.20;;;20.70;99.90;;;;;;4996233;28;20491;-68
2023/08/14 04:43:18;;;;;;;5.30;3.13;;;20.70;99.90;;;;;;5006705;28;20571;-68
2023/08/14 04:45:46;;;;;;;5.10;2.90;;;20.70;99.90;;;;;;5002792;28;21009;-68
2023/08/14 04:48:13;;;;;;;6.07;2.97;;;20.70;99.90;;;;;;5002519;28;20491;-68
2023/08/14 04:50:41;;;;;;;7.83;3.93;;;20.70;99.90;;;;;;4992411;28;21337;-68
2023/08/14 04:53:08;;;;;;;4.67;3.07;;;20.80;99.90;;;;;;5003344;28;20568;-68
2023/08/14 04:55:35;;;;;;;4.00;2.73;;;20.70;99.90;;;;;;4995417;28;20495;-68
2023/08/14 04:58:02;;;;;;;5.30;2.93;;;20.60;99.90;;;;;;5003726;28;20466;-68
2023/08/14 05:00:29;;;;;;;2.80;2.40;;;20.60;99.90;;;;;;5002118;28;20549;-68
2023/08/14 05:02:55;;;;;;;3.40;2.83;;;20.60;99.90;;;;;;4995718;28;20477;-67
2023/08/14 05:05:22;;;;;;;16.80;3.43;;;20.70;99.90;;;;;;5003756;28;20487;-68
2023/08/14 05:07:51;;;;;;;3.97;2.90;;;20.70;99.90;;;;;;4998150;28;20923;-68
2023/08/14 05:10:18;;;;;;;6.07;2.67;;;20.80;99.90;;;;;;4986383;28;20475;-67
2023/08/14 05:12:46;;;;;;;4.57;3.23;;;20.80;99.90;;;;;;5004166;28;20451;-67
2023/08/14 05:15:13;;;;;;;4.53;3.40;;;20.90;99.90;;;;;;4995451;28;20561;-68
2023/08/14 05:17:40;;;;;;;4.80;3.17;;;20.90;99.90;;;;;;4987234;28;20571;-67
2023/08/14 05:20:08;;;;;;;7.07;3.20;;;21.00;99.90;;;;;;4998590;28;20568;-68
2023/08/14 05:22:35;;;;;;;9.03;3.10;;;21.00;99.90;;;;;;5012906;28;20976;-67
2023/08/14 05:25:05;;;;;;;5.93;2.77;;;21.10;99.90;;;;;;4996726;28;20485;-68
2023/08/14 05:27:36;;;;;;;4.73;2.90;;;21.10;99.90;;;;;;5007790;28;20564;-68
2023/08/14 05:30:04;;;;;;;3.63;2.90;;;21.20;99.90;;;;;;4997328;28;20475;-67
2023/08/14 05:32:31;;;;;;;8.97;2.77;;;21.20;99.90;;;;;;5007226;28;21006;-67
2023/08/14 05:34:58;;;;;;;3.23;2.93;;;21.30;99.90;;;;;;5005249;28;20789;-67
2023/08/14 05:37:25;;;;;;;12.10;3.10;;;21.30;99.90;;;;;;4990085;28;20563;-71
2023/08/14 05:39:52;;;;;;;4.57;3.40;;;21.30;99.90;;;;;;5004090;28;20468;-69
2023/08/14 05:42:20;;;;;;;4.80;3.33;;;21.20;99.90;;;;;;5004973;28;20591;-72
2023/08/14 05:44:47;;;;;;;9.93;3.10;;;21.20;99.90;;;;;;5006401;28;20483;-71
2023/08/14 05:47:14;;;;;;;9.73;3.67;;;21.10;99.90;;;;;;5007799;28;20492;-67
2023/08/14 05:49:41;;;;;;;5.97;3.23;;;21.10;99.90;;;;;;4989570;28;20471;-67
2023/08/14 05:52:08;;;;;;;4.47;2.67;;;21.20;99.90;;;;;;4994355;28;20490;-68
2023/08/14 05:54:34;;;;;;;3.23;2.93;;;21.30;99.90;;;;;;5006571;28;20478;-67
2023/08/14 05:57:01;;;;;;;23.67;4.10;;;21.50;99.90;;;;;;5007727;28;20556;-67
2023/08/14 05:59:30;;;;;;;3.93;3.53;;;21.50;99.90;;;;;;5001194;28;20505;-67
2023/08/14 06:01:57;;;;;;;5.50;3.77;;;21.60;99.90;;;;;;5002083;28;20477;-66
2023/08/14 06:04:24;;;;;;;4.53;4.13;;;21.70;99.90;;;;;;4999790;28;20587;-66
2023/08/14 06:06:51;;;;;;;10.27;4.37;;;21.80;99.90;;;;;;5016921;28;20464;-67
2023/08/14 06:09:19;;;;;;;9.03;4.80;;;21.80;99.90;;;;;;4998652;28;20565;-67
2023/08/14 06:11:46;;;;;;;5.03;4.10;;;21.90;99.90;;;;;;4996680;28;20472;-66
2023/08/14 06:14:13;;;;;;;8.30;4.37;;;22.00;99.90;;;;;;4999057;28;20458;-67
2023/08/14 06:16:42;;;;;;;12.43;3.70;;;;;;;;;;4997073;28;20460;-67
2023/08/14 06:19:09;;;;;;;4.27;3.87;;;22.10;99.90;;;;;;4998096;28;20494;-66
2023/08/14 06:21:36;;;;;;;3.80;3.40;;;22.20;99.90;;;;;;4994874;28;20866;-67
2023/08/14 06:24:03;;;;;;;5.57;4.50;;;22.20;99.90;;;;;;5005565;28;20547;-67
2023/08/14 06:26:30;;;;;;;4.93;4.33;;;22.30;99.90;;;;;;5002132;28;20764;-67
2023/08/14 06:28:57;;;;;;;6.03;3.97;;;22.30;99.90;;;;;;5003319;28;20522;-67
2023/08/14 06:31:24;;;;;;;8.00;4.50;;;22.30;99.90;;;;;;4993918;28;20931;-67
2023/08/14 06:33:52;;;;;;;11.03;4.37;;;22.40;99.90;;;;;;4992509;28;20564;-67
2023/08/14 06:36:19;;;;;;;27.43;4.60;;;22.50;99.90;;;;;;5007841;28;20567;-67
2023/08/14 06:38:46;;;;;;;4.93;4.33;;;;;;;;;;4991064;28;20491;-67
2023/08/14 06:41:13;;;;;;;4.83;3.20;;;;;;;;;;5016435;28;20842;-66
2023/08/14 06:43:40;;;;;;;5.10;4.10;;;22.70;99.90;;;;;;4993490;28;20495;-66
2023/08/14 06:46:07;;;;;;;10.73;4.77;;;;;;;;;;5001478;28;20454;-68
2023/08/14 06:48:34;;;;;;;5.20;4.13;;;22.70;99.90;;;;;;4997763;28;21056;-70
2023/08/14 06:51:02;;;;;;;9.43;4.90;;;22.70;99.90;;;;;;4996289;28;20545;-71
2023/08/14 06:53:29;;;;;;;4.50;4.10;;;22.80;99.90;;;;;;4995972;28;20569;-70
2023/08/14 06:55:57;;;;;;;6.73;3.87;;;;;;;;;;5009876;28;21156;-70
2023/08/14 06:58:24;;;;;;;5.10;4.60;;;22.90;99.90;;;;;;5001765;28;20538;-70
2023/08/14 07:00:51;;;;;;;4.67;4.13;;;22.90;99.90;;;;;;4990305;28;20537;-70
2023/08/14 07:03:18;;;;;;;5.40;4.20;;;22.90;99.90;;;;;;4999278;28;20514;-69
2023/08/14 07:05:45;;;;;;;5.47;4.97;;;23.00;99.90;;;;;;5003684;28;20499;-72
2023/08/14 07:08:13;;;;;;;5.80;4.50;;;23.00;99.90;;;;;;5000625;28;20589;-70
2023/08/14 07:10:40;;;;;;;4.57;4.00;;;23.00;99.90;;;;;;5003826;28;20875;-70
2023/08/14 07:13:07;;;;;;;3.87;3.57;;;23.00;99.90;;;;;;5010641;28;21108;-69
2023/08/14 07:15:34;;;;;;;5.13;4.37;;;23.00;99.90;;;;;;4999469;28;20865;-71
2023/08/14 07:18:01;;;;;;;5.40;4.53;;;23.10;99.90;;;;;;4998432;28;20501;-70
2023/08/14 07:20:28;;;;;;;9.37;4.87;;;23.20;99.90;;;;;;4980524;28;20496;-71
2023/08/14 07:22:56;;;;;;;5.10;4.60;;;23.30;99.90;;;;;;5006685;28;20750;-70
2023/08/14 07:25:24;;;;;;;7.10;4.40;;;23.40;99.90;;;;;;5004044;28;20531;-70
2023/08/14 07:27:52;;;;;;;4.60;4.20;;;23.50;99.90;;;;;;4996233;28;20503;-70
2023/08/14 07:30:19;;;;;;;7.13;4.97;;;23.60;99.90;;;;;;5019131;28;20546;-69
2023/08/14 07:32:45;;;;;;;6.43;4.67;;;23.80;99.90;;;;;;5004741;28;21522;-69
2023/08/14 07:35:13;;;;;;;6.40;3.83;;;23.90;99.90;;;;;;4991727;28;20550;-70
2023/08/14 07:37:40;;;;;;;5.77;3.90;;;23.90;99.90;;;;;;5013230;28;20565;-69
2023/08/14 07:40:08;;;;;;;6.57;3.90;;;24.00;99.90;;;;;;5001586;28;21135;-69
2023/08/14 07:42:36;;;;;;;9.10;4.80;;;24.10;99.90;;;;;;4998285;28;20499;-69
2023/08/14 07:45:03;;;;;;;5.17;4.17;;;24.10;99.90;;;;;;4998373;28;20462;-69
2023/08/14 07:47:30;;;;;;;6.53;3.90;;;24.00;99.90;;;;;;4978439;28;20523;-69
2023/08/14 07:49:57;;;;;;;11.30;5.20;;;24.10;99.90;;;;;;5006793;28;20486;-68
2023/08/14 07:52:25;;;;;;;15.20;4.40;;;24.00;99.90;;;;;;4993514;28;20466;-68
2023/08/14 07:54:52;;;;;;;11.70;3.63;;;24.00;99.90;;;;;;4993769;28;20513;-69
2023/08/14 07:57:19;;;;;;;10.63;5.37;;;24.00;99.90;;;;;;5013180;28;20460;-67
2023/08/14 07:59:47;;;;;;;5.03;4.03;;;24.10;99.90;;;;;;5005361;28;20563;-67
2023/08/14 08:02:14;;;;;;;10.63;3.90;;;24.10;99.90;;;;;;5003687;28;20744;-67
2023/08/14 08:04:41;;;;;;;6.57;3.97;;;24.20;99.90;;;;;;5014551;28;20579;-67
2023/08/14 08:07:08;;;;;;;8.30;4.47;;;24.30;99.90;;;;;;5004351;28;20573;-67
2023/08/14 08:09:35;;;;;;;8.73;4.40;;;24.30;99.90;;;;;;5001944;28;20862;-67
2023/08/14 08:12:02;;;;;;;5.03;3.33;;;24.30;99.90;;;;;;4997806;28;20571;-67
2023/08/14 08:14:29;;;;;;;4.20;3.73;;;24.30;99.90;;;;;;5008527;28;20563;-66
2023/08/14 08:16:57;;;;;;;4.23;3.77;;;24.30;99.90;;;;;;5004978;28;20950;-66
2023/08/14 08:19:24;;;;;;;5.90;4.37;;;24.40;99.90;;;;;;4997046;28;21088;-66
2023/08/14 08:21:51;;;;;;;4.43;4.03;;;24.60;99.90;;;;;;5005715;28;20460;-66
2023/08/14 08:24:19;;;;;;;4.77;4.37;;;24.70;99.90;;;;;;5012207;28;20480;-67
2023/08/14 08:26:45;;;;;;;5.73;4.10;;;24.60;99.90;;;;;;5009335;28;20492;-66
2023/08/14 08:29:13;;;;;;;6.57;4.73;;;24.60;99.90;;;;;;5004006;28;20513;-66
2023/08/14 08:31:40;;;;;;;4.53;4.13;;;24.60;99.90;;;;;;5006448;28;20856;-66
2023/08/14 08:34:08;;;;;;;8.13;4.90;;;24.60;99.90;;;;;;5002577;28;20568;-67
2023/08/14 08:36:35;;;;;;;4.87;4.37;;;;;;;;;;5000637;28;20456;-66
2023/08/14 08:39:02;;;;;;;4.30;3.97;;;24.50;99.90;;;;;;4996885;28;20588;-67
2023/08/14 08:41:32;;;;;;;4.87;3.70;;;24.60;99.90;;;;;;4995314;28;20478;-67
2023/08/14 08:44:06;;;;;;;5.00;4.03;;;24.60;99.90;;;;;;5004581;28;20483;-66
2023/08/14 08:46:36;;;;;;;4.97;4.53;;;24.70;99.90;;;;;;4991064;28;20487;-66
2023/08/14 08:49:04;;;;;;;6.33;4.30;;;24.80;99.90;;;;;;5006025;28;20599;-67
2023/08/14 08:51:34;;;;;;;4.37;4.07;;;24.80;99.90;;;;;;4982811;28;20730;-67
2023/08/14 08:54:02;;;;;;;4.10;3.80;;;24.90;99.90;;;;;;4995172;28;20497;-67
2023/08/14 08:56:29;;;;;;;5.30;3.83;;;24.90;99.90;;;;;;4996115;28;20585;-67
2023/08/14 08:58:58;;;;;;;4.07;3.67;;;24.90;99.90;;;;;;4997955;28;20473;-67
2023/08/14 09:01:25;;;;;;;6.63;4.77;;;24.80;99.90;;;;;;5002092;28;20565;-66
2023/08/14 09:03:52;;;;;;;5.10;4.60;;;24.80;99.90;;;;;;5013466;28;20527;-67
2023/08/14 09:06:19;;;;;;;7.93;4.23;;;24.70;99.90;;;;;;4988949;28;20594;-67
2023/08/14 09:08:47;;;;;;;22.00;5.60;;;24.90;99.90;;;;;;4987676;28;20484;-69
2023/08/14 09:11:14;;;;;;;4.67;4.20;;;24.90;99.90;;;;;;4998869;28;20898;-69
2023/08/14 09:13:41;;;;;;;4.87;3.80;;;25.00;99.90;;;;;;4991462;28;20623;-68
2023/08/14 09:16:08;;;;;;;6.80;4.63;;;;;;;;;;4971766;28;20572;-68
2023/08/14 09:18:35;;;;;;;4.60;4.03;;;25.70;99.90;;;;;;5019371;28;20489;-68
2023/08/14 09:21:03;;;;;;;6.40;4.40;;;25.60;99.90;;;;;;4990062;28;20865;-68
2023/08/14 09:23:32;;;;;;;5.50;4.03;;;25.80;99.90;;;;;;5003847;28;20702;-68
2023/08/14 09:26:00;;;;;;;5.60;4.57;;;26.30;99.90;;;;;;5009003;28;20505;-69
2023/08/14 09:28:28;;;;;;;9.10;3.90;;;26.60;99.90;;;;;;4987726;28;20816;-68
2023/08/14 09:31:05;;;;;;;5.47;4.97;;;26.70;99.90;;;;;;5008177;28;20568;-67
2023/08/14 09:33:33;;;;;;;5.40;4.53;;;26.80;99.90;;;;;;5006381;28;20460;-67
2023/08/14 09:36:00;;;;;;;5.87;4.63;;;26.80;99.90;;;;;;4997360;28;20542;-67
2023/08/14 09:38:27;;;;;;;7.50;4.63;;;27.10;99.90;;;;;;5009531;28;20478;-68
2023/08/14 09:40:57;;;;;;;4.57;3.93;;;27.10;99.90;;;;;;4994490;28;20537;-68
2023/08/14 09:43:25;;;;;;;4.40;4.10;;;27.10;99.90;;;;;;5011958;28;20480;-67
2023/08/14 09:45:53;;;;;;;4.53;4.13;;;27.10;99.90;;;;;;5013215;28;21036;-67
2023/08/14 09:48:20;;;;;;;6.53;4.17;;;26.90;99.90;;;;;;5009216;28;20550;-67
2023/08/14 09:50:50;;;;;;;4.77;4.37;;;26.90;99.90;;;;;;5004747;28;20452;-67
2023/08/14 09:53:16;;;;;;;6.30;3.90;;;26.80;99.90;;;;;;5002113;28;20714;-67
2023/08/14 09:55:44;;;;;;;5.00;4.30;;;26.70;99.90;;;;;;4999354;28;20574;-68
2023/08/14 09:58:11;;;;;;;4.17;3.77;;;26.60;99.90;;;;;;4984750;28;20575;-68
2023/08/14 10:00:40;;;;;;;8.50;4.47;;;;;;;;;;4997064;28;20484;-67
2023/08/14 10:03:09;;;;;;;4.30;3.90;;;26.50;99.90;;;;;;4985693;28;20464;-67
2023/08/14 10:05:37;;;;;;;5.30;4.10;;;26.20;99.90;;;;;;5007003;28;20486;-66
2023/08/14 10:08:07;;;;;;;7.70;4.30;;;26.00;99.90;;;;;;4995273;28;20483;-67
2023/08/14 10:10:37;;;;;;;4.07;3.37;;;26.00;99.90;;;;;;4992716;28;20459;-66
2023/08/14 10:13:08;;;;;;;4.10;3.63;;;25.70;99.90;;;;;;5011598;28;20543;-69
2023/08/14 10:15:42;;;;;;;5.70;4.90;;;25.40;99.90;;;;;;5009717;28;20584;-68
2023/08/14 10:18:13;;;;;;;13.43;4.30;;;25.00;99.90;;;;;;4987887;28;20549;-70
2023/08/14 10:20:43;;;;;;;4.70;4.07;;;24.90;99.90;;;;;;4989322;28;20570;-69
2023/08/14 10:23:10;;;;;;;8.40;3.90;;;24.90;99.90;;;;;;5001154;28;21099;-69
2023/08/14 10:25:38;;;;;;;5.50;3.70;;;24.70;99.90;;;;;;4996082;28;20484;-70
2023/08/14 10:28:07;;;;;;;7.07;3.87;;;24.60;99.90;;;;;;4996764;28;20570;-68
2023/08/14 10:30:36;;;;;;;5.67;3.30;;;24.50;99.90;;;;;;4990350;28;20860;-68
2023/08/14 10:33:06;;;;;;;6.37;3.50;;;24.50;99.90;;;;;;4997701;28;20927;-68
2023/08/14 10:35:45;;;;;;;7.43;3.70;;;24.50;99.90;;;;;;5004831;28;20461;-68
2023/08/14 10:38:12;;;;;;;5.03;2.97;;;24.50;99.90;;;;;;4989203;28;20453;-67
2023/08/14 10:40:52;;;;;;;5.30;3.80;;;24.60;99.90;;;;;;4992877;28;21069;-66
2023/08/14 10:43:19;;;;;;;8.47;5.00;;;24.60;99.90;;;;;;4983101;28;21051;-66
2023/08/14 10:45:45;;;;;;;5.90;4.00;;;24.70;99.90;;;;;;5004621;28;20545;-66
2023/08/14 10:48:14;;;;;;;8.33;4.50;;;24.90;99.90;;;;;;4993724;28;20481;-65
2023/08/14 10:50:41;;;;;;;4.20;3.67;;;25.10;99.90;;;;;;5004301;28;20700;-66
2023/08/14 10:53:08;;;;;;;4.53;3.87;;;25.10;99.90;;;;;;4996380;28;20442;-66
2023/08/14 10:55:41;;;;;;;6.80;3.60;;;25.50;99.90;;;;;;5007513;28;20635;-67
2023/08/14 10:58:40;;;;;;;6.10;4.27;;;25.70;99.90;;;;;;5002997;28;20579;-66
2023/08/14 11:01:09;;;;;;;4.73;3.90;;;25.80;99.90;;;;;;4991309;28;20468;-66
2023/08/14 11:03:56;;;;;;;4.07;3.67;;;25.80;99.90;;;;;;4974015;28;20473;-65
2023/08/14 11:06:24;;;;;;;6.20;3.97;;;25.70;99.90;;;;;;4985268;28;20481;-66
2023/08/14 11:09:04;;;;;;;7.83;3.63;;;25.70;99.90;;;;;;4982041;28;20484;-65
2023/08/14 11:11:45;;;;;;;6.47;3.77;;;25.80;99.90;;;;;;4983807;28;20478;-65
2023/08/14 11:14:12;;;;;;;6.00;3.43;;;25.90;99.90;;;;;;4996341;28;20487;-66
2023/08/14 11:16:40;;;;;;;6.20;4.20;;;25.90;99.90;;;;;;4991412;28;20524;-65
2023/08/14 11:19:09;;;;;;;5.43;3.90;;;25.70;99.90;;;;;;5003069;28;20787;-66
2023/08/14 11:21:36;;;;;;;4.07;3.20;;;25.80;99.90;;;;;;4999141;28;20574;-65
2023/08/14 11:24:11;;;;;;;9.23;4.73;;;25.80;99.90;;;;;;5000038;28;20499;-65
2023/08/14 11:26:38;;;;;;;8.13;4.47;;;25.70;99.90;;;;;;4985191;28;21256;-66
2023/08/14 11:29:05;;;;;;;5.33;4.03;;;25.60;99.90;;;;;;5001806;28;21022;-65
2023/08/14 11:31:32;;;;;;;4.87;4.17;;;25.60;99.90;;;;;;4992749;28;20487;-67
2023/08/14 11:34:00;;;;;;;9.90;4.73;;;25.40;99.90;;;;;;5001764;28;20545;-66
2023/08/14 11:36:29;;;;;;;4.70;4.30;;;25.40;99.90;;;;;;5009729;28;20444;-65
2023/08/14 11:38:55;;;;;;;8.57;3.70;;;25.30;99.90;;;;;;4998475;28;20949;-66
2023/08/14 11:41:22;;;;;;;7.20;5.13;;;25.30;99.90;;;;;;4998780;28;20506;-66
2023/08/14 11:43:49;;;;;;;10.73;4.70;;;25.30;99.90;;;;;;4985244;28;20481;-66
2023/08/14 11:46:16;;;;;;;5.83;4.40;;;25.30;99.90;;;;;;4997760;28;20826;-66
2023/08/14 11:48:43;;;;;;;8.70;4.17;;;25.40;99.90;;;;;;4998716;28;20568;-66
2023/08/14 11:51:10;;;;;;;7.43;5.10;;;25.50;99.90;;;;;;4991600;28;20525;-66
2023/08/14 11:53:40;;;;;;;15.03;4.53;;;25.70;99.90;;;;;;4996850;28;20565;-66
2023/08/14 11:56:07;;;;;;;6.60;4.33;;;25.70;99.90;;;;;;4988490;28;20496;-66
2023/08/14 11:58:37;;;;;;;6.50;4.47;;;25.80;99.90;;;;;;4998049;28;20550;-65
2023/08/14 12:01:05;;;;;;;6.20;4.30;;;25.90;99.90;;;;;;4998944;28;20470;-66
2023/08/14 12:03:32;;;;;;;4.83;4.13;;;;;;;;;;4999470;28;20458;-65
2023/08/14 12:06:04;;;;;;;10.50;5.43;;;25.90;99.90;;;;;;4997168;28;21093;-65
2023/08/14 12:08:31;;;;;;;6.20;4.87;;;25.90;99.90;;;;;;5008309;28;20535;-66
2023/08/14 12:11:00;;;;;;;5.07;4.57;;;25.90;99.90;;;;;;5004180;28;20528;-65
2023/08/14 12:13:27;;;;;;;4.73;4.17;;;;;;;;;;4999315;28;20807;-65
2023/08/14 12:15:54;;;;;;;9.60;5.30;;;25.90;99.90;;;;;;5003502;28;20914;-66
2023/08/14 12:18:22;;;;;;;10.50;5.33;;;25.90;99.90;;;;;;5007528;28;20638;-65
2023/08/14 12:20:52;;;;;;;6.10;4.97;;;;;;;;;;5004444;28;20486;-66
2023/08/14 12:23:22;;;;;;;7.20;4.67;;;;;;;;;;5007070;28;20474;-65
2023/08/14 12:25:49;;;;;;;6.23;4.80;;;26.10;99.90;;;;;;4995216;28;20454;-65
2023/08/14 12:28:18;;;;;;;6.00;4.67;;;26.40;99.90;;;;;;4996439;28;20497;-64
2023/08/14 12:30:46;;;;;;;10.97;6.00;;;26.40;99.90;;;;;;4997470;28;20535;-65
2023/08/14 12:33:14;;;;;;;8.77;4.37;;;26.30;99.90;;;;;;4994567;28;20464;-66
2023/08/14 12:35:41;;;;;;;6.70;5.83;;;26.30;99.90;;;;;;5007205;28;20578;-65
2023/08/14 12:38:09;;;;;;;7.20;5.03;;;26.20;99.90;;;;;;5004279;28;20570;-66
2023/08/14 12:40:36;;;;;;;5.17;4.67;;;26.00;99.90;;;;;;5003725;28;20486;-65
2023/08/14 12:43:04;;;;;;;6.10;5.50;;;25.90;99.90;;;;;;5004335;28;20546;-66
2023/08/14 12:45:32;;;;;;;6.37;5.43;;;25.90;99.90;;;;;;5005371;28;20478;-66
2023/08/14 12:47:59;;;;;;;7.90;6.17;;;25.90;99.90;;;;;;5002859;28;20494;-65
2023/08/14 12:50:26;;;;;;;10.00;6.37;;;25.80;99.90;;;;;;5000311;28;20936;-65
2023/08/14 12:52:53;;;;;;;7.13;5.20;;;26.00;99.90;;;;;;5009955;28;20476;-66
2023/08/14 12:55:20;;;;;;;7.10;5.80;;;26.00;99.90;;;;;;5004096;28;20836;-66